sensor_id;sensor_type;location;lat;lon;timestamp;P1;durP1;ratioP1;P2;durP2;ratioP2
79702;SDS011;69172;52.352;5.006;2023-08-07T00:00:25;13.80;;;2.38;;
79702;SDS011;69172;52.352;5.006;2023-08-07T00:02:51;11.00;;;2.25;;
79702;SDS011;69172;52.352;5.006;2023-08-07T00:05:16;7.10;;;1.75;;
79702;SDS011;69172;52.352;5.006;2023-08-07T00:07:42;11.27;;;2.25;;
79702;SDS011;69172;52.352;5.006;2023-08-07T00:10:07;11.55;;;2.30;;
79702;SDS011;69172;52.352;5.006;2023-08-07T00:12:34;10.00;;;2.50;;
79702;SDS011;69172;52.352;5.006;2023-08-07T00:15:00;14.55;;;2.28;;
79702;SDS011;69172;52.352;5.006;2023-08-07T00:17:26;16.08;;;2.25;;
79702;SDS011;69172;52.352;5.006;2023-08-07T00:19:51;12.20;;;2.50;;
79702;SDS011;69172;52.352;5.006;2023-08-07T00:22:17;12.43;;;2.35;;
79702;SDS011;69172;52.352;5.006;2023-08-07T00:24:42;20.67;;;3.42;;
79702;SDS011;69172;52.352;5.006;2023-08-07T00:27:08;13.02;;;3.03;;
79702;SDS011;69172;52.352;5.006;2023-08-07T00:29:35;13.23;;;2.70;;
79702;SDS011;69172;52.352;5.006;2023-08-07T00:32:01;9.98;;;2.10;;
79702;SDS011;69172;52.352;5.006;2023-08-07T00:34:27;8.23;;;1.80;;
79702;SDS011;69172;52.352;5.006;2023-08-07T00:36:53;13.80;;;2.75;;
79702;SDS011;69172;52.352;5.006;2023-08-07T00:39:18;12.88;;;2.30;;
79702;SDS011;69172;52.352;5.006;2023-08-07T00:41:44;14.35;;;2.35;;
79702;SDS011;69172;52.352;5.006;2023-08-07T00:44:09;10.85;;;2.10;;
79702;SDS011;69172;52.352;5.006;2023-08-07T00:46:34;12.18;;;2.30;;
79702;SDS011;69172;52.352;5.006;2023-08-07T00:49:00;13.00;;;2.08;;
79702;SDS011;69172;52.352;5.006;2023-08-07T00:51:27;15.50;;;2.35;;
79702;SDS011;69172;52.352;5.006;2023-08-07T00:53:52;10.25;;;2.05;;
79702;SDS011;69172;52.352;5.006;2023-08-07T00:56:17;14.77;;;2.20;;
79702;SDS011;69172;52.352;5.006;2023-08-07T00:58:43;8.82;;;2.20;;
79702;SDS011;69172;52.352;5.006;2023-08-07T01:01:09;8.45;;;2.35;;
79702;SDS011;69172;52.352;5.006;2023-08-07T01:03:35;11.25;;;2.05;;
79702;SDS011;69172;52.352;5.006;2023-08-07T01:06:01;11.57;;;2.60;;
79702;SDS011;69172;52.352;5.006;2023-08-07T01:08:26;15.50;;;2.08;;
79702;SDS011;69172;52.352;5.006;2023-08-07T01:14:48;10.05;;;1.85;;
79702;SDS011;69172;52.352;5.006;2023-08-07T01:16:59;9.30;;;2.08;;
79702;SDS011;69172;52.352;5.006;2023-08-07T01:19:29;11.57;;;1.80;;
79702;SDS011;69172;52.352;5.006;2023-08-07T01:24:33;11.52;;;1.85;;
79702;SDS011;69172;52.352;5.006;2023-08-07T01:27:07;13.05;;;2.33;;
79702;SDS011;69172;52.352;5.006;2023-08-07T01:29:51;10.25;;;2.78;;
79702;SDS011;69172;52.352;5.006;2023-08-07T01:33:07;10.57;;;1.70;;
79702;SDS011;69172;52.352;5.006;2023-08-07T01:35:23;10.70;;;2.15;;
79702;SDS011;69172;52.352;5.006;2023-08-07T01:37:51;15.10;;;1.90;;
79702;SDS011;69172;52.352;5.006;2023-08-07T01:40:19;6.57;;;1.63;;
79702;SDS011;69172;52.352;5.006;2023-08-07T01:42:47;9.80;;;1.65;;
79702;SDS011;69172;52.352;5.006;2023-08-07T01:45:12;8.75;;;1.58;;
79702;SDS011;69172;52.352;5.006;2023-08-07T01:47:38;12.73;;;2.30;;
79702;SDS011;69172;52.352;5.006;2023-08-07T01:50:03;12.95;;;2.25;;
79702;SDS011;69172;52.352;5.006;2023-08-07T01:52:29;8.88;;;2.00;;
79702;SDS011;69172;52.352;5.006;2023-08-07T01:54:55;12.30;;;2.17;;
79702;SDS011;69172;52.352;5.006;2023-08-07T01:57:20;11.95;;;2.22;;
79702;SDS011;69172;52.352;5.006;2023-08-07T01:59:46;7.68;;;1.38;;
79702;SDS011;69172;52.352;5.006;2023-08-07T02:02:11;9.00;;;1.85;;
79702;SDS011;69172;52.352;5.006;2023-08-07T02:04:36;9.52;;;1.83;;
79702;SDS011;69172;52.352;5.006;2023-08-07T02:07:02;7.75;;;1.55;;
79702;SDS011;69172;52.352;5.006;2023-08-07T02:09:27;9.63;;;2.00;;
79702;SDS011;69172;52.352;5.006;2023-08-07T02:11:53;10.30;;;1.95;;
79702;SDS011;69172;52.352;5.006;2023-08-07T02:14:18;12.48;;;2.08;;
79702;SDS011;69172;52.352;5.006;2023-08-07T02:16:43;12.55;;;2.45;;
79702;SDS011;69172;52.352;5.006;2023-08-07T02:19:09;9.60;;;2.08;;
79702;SDS011;69172;52.352;5.006;2023-08-07T02:21:34;13.75;;;3.10;;
79702;SDS011;69172;52.352;5.006;2023-08-07T02:23:59;11.93;;;2.33;;
79702;SDS011;69172;52.352;5.006;2023-08-07T02:26:25;21.05;;;3.17;;
79702;SDS011;69172;52.352;5.006;2023-08-07T02:28:50;9.57;;;2.47;;
79702;SDS011;69172;52.352;5.006;2023-08-07T02:31:17;17.52;;;2.95;;
79702;SDS011;69172;52.352;5.006;2023-08-07T02:33:43;10.23;;;2.67;;
79702;SDS011;69172;52.352;5.006;2023-08-07T02:36:08;17.48;;;2.72;;
79702;SDS011;69172;52.352;5.006;2023-08-07T02:38:34;16.38;;;3.03;;
79702;SDS011;69172;52.352;5.006;2023-08-07T02:40:59;14.20;;;2.97;;
79702;SDS011;69172;52.352;5.006;2023-08-07T02:43:25;10.27;;;2.00;;
79702;SDS011;69172;52.352;5.006;2023-08-07T02:45:51;8.50;;;1.77;;
79702;SDS011;69172;52.352;5.006;2023-08-07T02:48:16;7.05;;;1.60;;
79702;SDS011;69172;52.352;5.006;2023-08-07T02:50:42;8.60;;;1.75;;
79702;SDS011;69172;52.352;5.006;2023-08-07T02:53:08;5.53;;;1.50;;
79702;SDS011;69172;52.352;5.006;2023-08-07T02:55:35;9.10;;;1.83;;
79702;SDS011;69172;52.352;5.006;2023-08-07T02:58:00;9.48;;;2.20;;
79702;SDS011;69172;52.352;5.006;2023-08-07T03:00:25;7.60;;;1.38;;
79702;SDS011;69172;52.352;5.006;2023-08-07T03:02:51;9.13;;;1.70;;
79702;SDS011;69172;52.352;5.006;2023-08-07T03:05:16;12.27;;;1.88;;
79702;SDS011;69172;52.352;5.006;2023-08-07T03:07:41;15.82;;;2.15;;
79702;SDS011;69172;52.352;5.006;2023-08-07T03:10:07;10.23;;;2.25;;
79702;SDS011;69172;52.352;5.006;2023-08-07T03:12:32;10.80;;;2.33;;
79702;SDS011;69172;52.352;5.006;2023-08-07T03:14:58;9.10;;;2.17;;
79702;SDS011;69172;52.352;5.006;2023-08-07T03:17:23;9.10;;;1.80;;
79702;SDS011;69172;52.352;5.006;2023-08-07T03:19:49;10.45;;;1.92;;
79702;SDS011;69172;52.352;5.006;2023-08-07T03:22:14;10.98;;;2.00;;
79702;SDS011;69172;52.352;5.006;2023-08-07T03:24:39;10.85;;;2.05;;
79702;SDS011;69172;52.352;5.006;2023-08-07T03:27:05;14.30;;;2.35;;
79702;SDS011;69172;52.352;5.006;2023-08-07T03:29:30;11.80;;;2.33;;
79702;SDS011;69172;52.352;5.006;2023-08-07T03:31:56;10.25;;;2.60;;
79702;SDS011;69172;52.352;5.006;2023-08-07T03:34:22;13.63;;;2.35;;
79702;SDS011;69172;52.352;5.006;2023-08-07T03:36:47;9.82;;;3.15;;
79702;SDS011;69172;52.352;5.006;2023-08-07T03:39:12;12.98;;;2.25;;
79702;SDS011;69172;52.352;5.006;2023-08-07T03:41:38;10.32;;;2.95;;
79702;SDS011;69172;52.352;5.006;2023-08-07T03:44:04;10.95;;;2.08;;
79702;SDS011;69172;52.352;5.006;2023-08-07T03:46:30;13.48;;;2.60;;
79702;SDS011;69172;52.352;5.006;2023-08-07T03:48:55;11.00;;;2.42;;
79702;SDS011;69172;52.352;5.006;2023-08-07T03:51:20;13.93;;;2.67;;
79702;SDS011;69172;52.352;5.006;2023-08-07T03:53:46;13.75;;;2.75;;
79702;SDS011;69172;52.352;5.006;2023-08-07T03:56:11;11.48;;;2.72;;
79702;SDS011;69172;52.352;5.006;2023-08-07T03:58:37;12.40;;;2.85;;
79702;SDS011;69172;52.352;5.006;2023-08-07T04:01:02;13.20;;;2.58;;
79702;SDS011;69172;52.352;5.006;2023-08-07T04:03:28;12.57;;;2.28;;
79702;SDS011;69172;52.352;5.006;2023-08-07T04:05:54;13.20;;;2.35;;
79702;SDS011;69172;52.352;5.006;2023-08-07T04:08:20;8.45;;;2.00;;
79702;SDS011;69172;52.352;5.006;2023-08-07T04:10:57;11.88;;;2.90;;
79702;SDS011;69172;52.352;5.006;2023-08-07T04:13:23;13.25;;;2.33;;
79702;SDS011;69172;52.352;5.006;2023-08-07T04:15:49;13.50;;;2.33;;
79702;SDS011;69172;52.352;5.006;2023-08-07T04:18:14;12.55;;;2.13;;
79702;SDS011;69172;52.352;5.006;2023-08-07T04:20:41;10.10;;;2.35;;
79702;SDS011;69172;52.352;5.006;2023-08-07T04:23:06;13.68;;;2.25;;
79702;SDS011;69172;52.352;5.006;2023-08-07T04:25:32;10.35;;;2.60;;
79702;SDS011;69172;52.352;5.006;2023-08-07T04:27:57;21.23;;;3.30;;
79702;SDS011;69172;52.352;5.006;2023-08-07T04:30:22;11.23;;;2.35;;
79702;SDS011;69172;52.352;5.006;2023-08-07T04:32:48;13.55;;;2.38;;
79702;SDS011;69172;52.352;5.006;2023-08-07T04:35:14;14.02;;;2.90;;
79702;SDS011;69172;52.352;5.006;2023-08-07T04:37:39;15.45;;;2.72;;
79702;SDS011;69172;52.352;5.006;2023-08-07T04:40:05;11.00;;;2.55;;
79702;SDS011;69172;52.352;5.006;2023-08-07T04:42:30;10.27;;;2.67;;
79702;SDS011;69172;52.352;5.006;2023-08-07T04:44:57;11.02;;;2.40;;
79702;SDS011;69172;52.352;5.006;2023-08-07T04:47:22;14.25;;;2.83;;
79702;SDS011;69172;52.352;5.006;2023-08-07T04:49:48;13.38;;;2.40;;
79702;SDS011;69172;52.352;5.006;2023-08-07T04:52:14;11.68;;;2.13;;
79702;SDS011;69172;52.352;5.006;2023-08-07T04:54:39;9.25;;;2.13;;
79702;SDS011;69172;52.352;5.006;2023-08-07T04:57:04;10.00;;;1.92;;
79702;SDS011;69172;52.352;5.006;2023-08-07T04:59:30;8.95;;;1.80;;
79702;SDS011;69172;52.352;5.006;2023-08-07T05:01:56;10.32;;;2.28;;
79702;SDS011;69172;52.352;5.006;2023-08-07T05:04:22;10.25;;;2.20;;
79702;SDS011;69172;52.352;5.006;2023-08-07T05:06:47;10.05;;;2.20;;
79702;SDS011;69172;52.352;5.006;2023-08-07T05:09:13;8.70;;;2.13;;
79702;SDS011;69172;52.352;5.006;2023-08-07T05:11:39;12.25;;;2.50;;
79702;SDS011;69172;52.352;5.006;2023-08-07T05:14:04;8.25;;;2.58;;
79702;SDS011;69172;52.352;5.006;2023-08-07T05:16:30;11.18;;;2.45;;
79702;SDS011;69172;52.352;5.006;2023-08-07T05:18:55;16.48;;;3.20;;
79702;SDS011;69172;52.352;5.006;2023-08-07T05:21:20;14.88;;;2.92;;
79702;SDS011;69172;52.352;5.006;2023-08-07T05:23:46;9.35;;;2.30;;
79702;SDS011;69172;52.352;5.006;2023-08-07T05:26:12;14.27;;;2.95;;
79702;SDS011;69172;52.352;5.006;2023-08-07T05:28:38;18.10;;;2.50;;
79702;SDS011;69172;52.352;5.006;2023-08-07T05:31:03;13.07;;;2.78;;
79702;SDS011;69172;52.352;5.006;2023-08-07T05:33:29;18.17;;;3.20;;
79702;SDS011;69172;52.352;5.006;2023-08-07T05:35:54;15.02;;;3.00;;
79702;SDS011;69172;52.352;5.006;2023-08-07T05:38:20;10.50;;;2.22;;
79702;SDS011;69172;52.352;5.006;2023-08-07T05:40:46;10.77;;;2.30;;
79702;SDS011;69172;52.352;5.006;2023-08-07T05:43:11;12.65;;;2.35;;
79702;SDS011;69172;52.352;5.006;2023-08-07T05:45:37;10.52;;;2.20;;
79702;SDS011;69172;52.352;5.006;2023-08-07T05:48:04;13.02;;;3.05;;
79702;SDS011;69172;52.352;5.006;2023-08-07T05:50:30;14.75;;;3.42;;
79702;SDS011;69172;52.352;5.006;2023-08-07T05:52:55;12.15;;;2.72;;
79702;SDS011;69172;52.352;5.006;2023-08-07T05:55:21;14.43;;;2.25;;
79702;SDS011;69172;52.352;5.006;2023-08-07T05:57:46;11.43;;;2.63;;
79702;SDS011;69172;52.352;5.006;2023-08-07T06:00:12;11.52;;;3.00;;
79702;SDS011;69172;52.352;5.006;2023-08-07T06:02:42;10.90;;;2.60;;
79702;SDS011;69172;52.352;5.006;2023-08-07T06:05:08;11.15;;;2.55;;
79702;SDS011;69172;52.352;5.006;2023-08-07T06:07:34;16.00;;;3.10;;
79702;SDS011;69172;52.352;5.006;2023-08-07T06:10:00;12.43;;;3.03;;
79702;SDS011;69172;52.352;5.006;2023-08-07T06:12:25;10.93;;;2.63;;
79702;SDS011;69172;52.352;5.006;2023-08-07T06:14:51;12.23;;;3.03;;
79702;SDS011;69172;52.352;5.006;2023-08-07T06:17:16;9.85;;;2.72;;
79702;SDS011;69172;52.352;5.006;2023-08-07T06:19:41;12.20;;;2.72;;
79702;SDS011;69172;52.352;5.006;2023-08-07T06:22:07;11.45;;;2.92;;
79702;SDS011;69172;52.352;5.006;2023-08-07T06:24:32;11.43;;;2.92;;
79702;SDS011;69172;52.352;5.006;2023-08-07T06:26:57;12.48;;;2.53;;
79702;SDS011;69172;52.352;5.006;2023-08-07T06:29:23;10.23;;;2.47;;
79702;SDS011;69172;52.352;5.006;2023-08-07T06:31:49;10.90;;;3.08;;
79702;SDS011;69172;52.352;5.006;2023-08-07T06:34:15;15.85;;;3.28;;
79702;SDS011;69172;52.352;5.006;2023-08-07T06:36:40;13.48;;;3.35;;
79702;SDS011;69172;52.352;5.006;2023-08-07T06:39:06;14.88;;;2.90;;
79702;SDS011;69172;52.352;5.006;2023-08-07T06:41:31;13.45;;;2.85;;
79702;SDS011;69172;52.352;5.006;2023-08-07T06:43:56;12.15;;;3.33;;
79702;SDS011;69172;52.352;5.006;2023-08-07T06:46:22;17.90;;;3.17;;
79702;SDS011;69172;52.352;5.006;2023-08-07T06:48:51;16.83;;;4.20;;
79702;SDS011;69172;52.352;5.006;2023-08-07T06:51:17;9.52;;;2.38;;
79702;SDS011;69172;52.352;5.006;2023-08-07T06:53:42;16.52;;;2.90;;
79702;SDS011;69172;52.352;5.006;2023-08-07T06:56:07;9.23;;;2.75;;
79702;SDS011;69172;52.352;5.006;2023-08-07T06:58:33;13.43;;;2.83;;
79702;SDS011;69172;52.352;5.006;2023-08-07T07:00:58;11.23;;;2.60;;
79702;SDS011;69172;52.352;5.006;2023-08-07T07:03:24;12.02;;;2.45;;
79702;SDS011;69172;52.352;5.006;2023-08-07T07:05:49;12.82;;;2.65;;
79702;SDS011;69172;52.352;5.006;2023-08-07T07:08:15;18.27;;;3.17;;
79702;SDS011;69172;52.352;5.006;2023-08-07T07:10:41;15.00;;;3.28;;
79702;SDS011;69172;52.352;5.006;2023-08-07T07:13:06;11.10;;;2.67;;
79702;SDS011;69172;52.352;5.006;2023-08-07T07:15:33;8.48;;;2.45;;
79702;SDS011;69172;52.352;5.006;2023-08-07T07:17:58;14.60;;;2.78;;
79702;SDS011;69172;52.352;5.006;2023-08-07T07:20:24;12.32;;;2.70;;
79702;SDS011;69172;52.352;5.006;2023-08-07T07:22:51;9.02;;;2.78;;
79702;SDS011;69172;52.352;5.006;2023-08-07T07:25:17;11.80;;;2.25;;
79702;SDS011;69172;52.352;5.006;2023-08-07T07:27:42;13.05;;;2.30;;
79702;SDS011;69172;52.352;5.006;2023-08-07T07:30:08;13.63;;;3.15;;
79702;SDS011;69172;52.352;5.006;2023-08-07T07:32:35;17.88;;;2.97;;
79702;SDS011;69172;52.352;5.006;2023-08-07T07:35:00;11.10;;;2.33;;
79702;SDS011;69172;52.352;5.006;2023-08-07T07:37:26;16.63;;;2.83;;
79702;SDS011;69172;52.352;5.006;2023-08-07T07:39:51;10.50;;;2.10;;
79702;SDS011;69172;52.352;5.006;2023-08-07T07:42:17;11.02;;;1.98;;
79702;SDS011;69172;52.352;5.006;2023-08-07T07:44:43;14.55;;;2.10;;
79702;SDS011;69172;52.352;5.006;2023-08-07T07:47:08;11.15;;;2.97;;
79702;SDS011;69172;52.352;5.006;2023-08-07T07:49:33;10.43;;;2.35;;
79702;SDS011;69172;52.352;5.006;2023-08-07T07:51:59;11.75;;;2.97;;
79702;SDS011;69172;52.352;5.006;2023-08-07T07:54:25;13.93;;;2.80;;
79702;SDS011;69172;52.352;5.006;2023-08-07T07:56:50;11.88;;;2.35;;
79702;SDS011;69172;52.352;5.006;2023-08-07T07:59:16;15.88;;;2.80;;
79702;SDS011;69172;52.352;5.006;2023-08-07T08:01:41;16.13;;;3.47;;
79702;SDS011;69172;52.352;5.006;2023-08-07T08:04:07;8.75;;;2.20;;
79702;SDS011;69172;52.352;5.006;2023-08-07T08:06:32;10.95;;;2.17;;
79702;SDS011;69172;52.352;5.006;2023-08-07T08:08:57;12.05;;;2.85;;
79702;SDS011;69172;52.352;5.006;2023-08-07T08:11:24;12.00;;;2.38;;
79702;SDS011;69172;52.352;5.006;2023-08-07T08:13:50;11.70;;;2.38;;
79702;SDS011;69172;52.352;5.006;2023-08-07T08:16:15;9.63;;;2.20;;
79702;SDS011;69172;52.352;5.006;2023-08-07T08:18:40;8.02;;;1.83;;
79702;SDS011;69172;52.352;5.006;2023-08-07T08:21:06;10.98;;;2.40;;
79702;SDS011;69172;52.352;5.006;2023-08-07T08:23:31;12.30;;;2.30;;
79702;SDS011;69172;52.352;5.006;2023-08-07T08:25:57;11.63;;;2.20;;
79702;SDS011;69172;52.352;5.006;2023-08-07T08:28:22;12.07;;;2.13;;
79702;SDS011;69172;52.352;5.006;2023-08-07T08:30:48;9.45;;;2.38;;
79702;SDS011;69172;52.352;5.006;2023-08-07T08:33:13;9.95;;;2.25;;
79702;SDS011;69172;52.352;5.006;2023-08-07T08:35:39;13.18;;;2.65;;
79702;SDS011;69172;52.352;5.006;2023-08-07T08:38:05;14.85;;;2.42;;
79702;SDS011;69172;52.352;5.006;2023-08-07T08:40:31;11.50;;;2.08;;
79702;SDS011;69172;52.352;5.006;2023-08-07T08:42:58;10.05;;;2.10;;
79702;SDS011;69172;52.352;5.006;2023-08-07T08:45:28;14.75;;;2.47;;
79702;SDS011;69172;52.352;5.006;2023-08-07T08:48:01;8.63;;;2.08;;
79702;SDS011;69172;52.352;5.006;2023-08-07T08:50:28;8.93;;;1.60;;
79702;SDS011;69172;52.352;5.006;2023-08-07T08:52:55;11.65;;;2.60;;
79702;SDS011;69172;52.352;5.006;2023-08-07T08:55:21;12.82;;;2.20;;
79702;SDS011;69172;52.352;5.006;2023-08-07T08:57:48;12.68;;;2.22;;
79702;SDS011;69172;52.352;5.006;2023-08-07T09:00:18;8.02;;;2.15;;
79702;SDS011;69172;52.352;5.006;2023-08-07T09:02:47;8.32;;;1.90;;
79702;SDS011;69172;52.352;5.006;2023-08-07T09:05:14;11.13;;;2.25;;
79702;SDS011;69172;52.352;5.006;2023-08-07T09:07:41;8.45;;;2.03;;
79702;SDS011;69172;52.352;5.006;2023-08-07T09:10:07;12.30;;;2.38;;
79702;SDS011;69172;52.352;5.006;2023-08-07T09:12:34;9.07;;;1.77;;
79702;SDS011;69172;52.352;5.006;2023-08-07T09:15:04;10.88;;;2.92;;
79702;SDS011;69172;52.352;5.006;2023-08-07T09:17:33;12.38;;;2.65;;
79702;SDS011;69172;52.352;5.006;2023-08-07T09:20:05;12.70;;;2.58;;
79702;SDS011;69172;52.352;5.006;2023-08-07T09:22:33;12.45;;;2.30;;
79702;SDS011;69172;52.352;5.006;2023-08-07T09:24:59;8.60;;;1.83;;
79702;SDS011;69172;52.352;5.006;2023-08-07T09:27:25;16.05;;;2.17;;
79702;SDS011;69172;52.352;5.006;2023-08-07T09:29:50;7.07;;;1.63;;
79702;SDS011;69172;52.352;5.006;2023-08-07T09:32:16;13.48;;;2.40;;
79702;SDS011;69172;52.352;5.006;2023-08-07T09:34:43;11.30;;;2.50;;
79702;SDS011;69172;52.352;5.006;2023-08-07T09:37:09;16.92;;;2.10;;
79702;SDS011;69172;52.352;5.006;2023-08-07T09:39:37;7.88;;;2.33;;
79702;SDS011;69172;52.352;5.006;2023-08-07T09:42:03;9.75;;;2.20;;
79702;SDS011;69172;52.352;5.006;2023-08-07T09:44:35;9.48;;;2.28;;
79702;SDS011;69172;52.352;5.006;2023-08-07T09:47:10;13.73;;;2.08;;
79702;SDS011;69172;52.352;5.006;2023-08-07T09:49:43;4.32;;;1.65;;
79702;SDS011;69172;52.352;5.006;2023-08-07T09:52:09;11.45;;;1.52;;
79702;SDS011;69172;52.352;5.006;2023-08-07T09:54:38;15.23;;;2.05;;
79702;SDS011;69172;52.352;5.006;2023-08-07T09:57:04;10.30;;;2.10;;
79702;SDS011;69172;52.352;5.006;2023-08-07T09:59:31;8.00;;;1.70;;
79702;SDS011;69172;52.352;5.006;2023-08-07T10:01:57;11.73;;;2.38;;
79702;SDS011;69172;52.352;5.006;2023-08-07T10:04:27;10.50;;;1.85;;
79702;SDS011;69172;52.352;5.006;2023-08-07T10:06:53;11.52;;;2.50;;
79702;SDS011;69172;52.352;5.006;2023-08-07T10:09:19;11.30;;;2.15;;
79702;SDS011;69172;52.352;5.006;2023-08-07T10:11:46;8.75;;;1.95;;
79702;SDS011;69172;52.352;5.006;2023-08-07T10:14:14;11.82;;;2.88;;
79702;SDS011;69172;52.352;5.006;2023-08-07T10:16:40;11.43;;;2.45;;
79702;SDS011;69172;52.352;5.006;2023-08-07T10:19:06;9.93;;;2.08;;
79702;SDS011;69172;52.352;5.006;2023-08-07T10:21:33;6.78;;;1.67;;
79702;SDS011;69172;52.352;5.006;2023-08-07T10:24:01;6.43;;;1.73;;
79702;SDS011;69172;52.352;5.006;2023-08-07T10:26:29;8.20;;;2.20;;
79702;SDS011;69172;52.352;5.006;2023-08-07T10:28:57;7.28;;;2.38;;
79702;SDS011;69172;52.352;5.006;2023-08-07T10:31:25;5.72;;;2.00;;
79702;SDS011;69172;52.352;5.006;2023-08-07T10:33:53;13.90;;;2.47;;
79702;SDS011;69172;52.352;5.006;2023-08-07T10:36:19;9.20;;;2.03;;
79702;SDS011;69172;52.352;5.006;2023-08-07T10:38:44;13.05;;;2.47;;
79702;SDS011;69172;52.352;5.006;2023-08-07T10:41:10;11.07;;;2.65;;
79702;SDS011;69172;52.352;5.006;2023-08-07T10:43:41;8.93;;;2.00;;
79702;SDS011;69172;52.352;5.006;2023-08-07T10:46:12;12.43;;;3.08;;
79702;SDS011;69172;52.352;5.006;2023-08-07T10:48:40;10.68;;;2.47;;
79702;SDS011;69172;52.352;5.006;2023-08-07T10:51:08;16.48;;;2.80;;
79702;SDS011;69172;52.352;5.006;2023-08-07T10:53:34;10.00;;;2.17;;
79702;SDS011;69172;52.352;5.006;2023-08-07T10:56:04;10.05;;;2.30;;
79702;SDS011;69172;52.352;5.006;2023-08-07T10:58:39;10.77;;;2.33;;
79702;SDS011;69172;52.352;5.006;2023-08-07T11:01:51;10.68;;;1.60;;
79702;SDS011;69172;52.352;5.006;2023-08-07T11:04:07;9.52;;;1.73;;
79702;SDS011;69172;52.352;5.006;2023-08-07T11:06:36;6.35;;;1.40;;
79702;SDS011;69172;52.352;5.006;2023-08-07T11:09:03;12.77;;;1.98;;
79702;SDS011;69172;52.352;5.006;2023-08-07T11:11:51;7.97;;;1.42;;
79702;SDS011;69172;52.352;5.006;2023-08-07T11:14:17;5.93;;;1.80;;
79702;SDS011;69172;52.352;5.006;2023-08-07T11:16:44;8.07;;;1.73;;
79702;SDS011;69172;52.352;5.006;2023-08-07T11:19:11;6.00;;;1.50;;
79702;SDS011;69172;52.352;5.006;2023-08-07T11:21:38;8.63;;;1.90;;
79702;SDS011;69172;52.352;5.006;2023-08-07T11:24:06;6.07;;;1.23;;
79702;SDS011;69172;52.352;5.006;2023-08-07T11:26:31;7.82;;;1.40;;
79702;SDS011;69172;52.352;5.006;2023-08-07T11:28:57;8.70;;;1.70;;
79702;SDS011;69172;52.352;5.006;2023-08-07T11:31:23;6.20;;;1.40;;
79702;SDS011;69172;52.352;5.006;2023-08-07T11:33:50;6.28;;;1.60;;
79702;SDS011;69172;52.352;5.006;2023-08-07T11:36:27;8.27;;;1.55;;
79702;SDS011;69172;52.352;5.006;2023-08-07T11:38:54;10.45;;;1.63;;
79702;SDS011;69172;52.352;5.006;2023-08-07T11:41:19;6.53;;;1.63;;
79702;SDS011;69172;52.352;5.006;2023-08-07T11:43:45;8.00;;;1.45;;
79702;SDS011;69172;52.352;5.006;2023-08-07T11:46:11;7.40;;;1.73;;
79702;SDS011;69172;52.352;5.006;2023-08-07T11:48:39;12.23;;;1.70;;
79702;SDS011;69172;52.352;5.006;2023-08-07T11:51:06;7.22;;;1.90;;
79702;SDS011;69172;52.352;5.006;2023-08-07T11:53:33;11.65;;;1.90;;
79702;SDS011;69172;52.352;5.006;2023-08-07T11:56:00;8.38;;;2.33;;
79702;SDS011;69172;52.352;5.006;2023-08-07T11:58:33;9.98;;;1.92;;
79702;SDS011;69172;52.352;5.006;2023-08-07T12:01:03;14.02;;;1.85;;
79702;SDS011;69172;52.352;5.006;2023-08-07T12:03:35;7.75;;;1.58;;
79702;SDS011;69172;52.352;5.006;2023-08-07T12:06:04;8.02;;;1.58;;
79702;SDS011;69172;52.352;5.006;2023-08-07T12:08:32;9.60;;;2.03;;
79702;SDS011;69172;52.352;5.006;2023-08-07T12:11:05;12.30;;;1.77;;
79702;SDS011;69172;52.352;5.006;2023-08-07T12:13:31;5.50;;;1.52;;
79702;SDS011;69172;52.352;5.006;2023-08-07T12:16:00;7.50;;;1.48;;
79702;SDS011;69172;52.352;5.006;2023-08-07T12:18:26;7.50;;;1.70;;
79702;SDS011;69172;52.352;5.006;2023-08-07T12:20:52;9.93;;;1.52;;
79702;SDS011;69172;52.352;5.006;2023-08-07T12:23:25;5.20;;;1.30;;
79702;SDS011;69172;52.352;5.006;2023-08-07T12:25:51;6.70;;;1.27;;
79702;SDS011;69172;52.352;5.006;2023-08-07T12:28:17;7.00;;;1.63;;
79702;SDS011;69172;52.352;5.006;2023-08-07T12:30:46;3.92;;;1.10;;
79702;SDS011;69172;52.352;5.006;2023-08-07T12:33:12;9.00;;;1.42;;
79702;SDS011;69172;52.352;5.006;2023-08-07T12:35:38;5.85;;;1.40;;
79702;SDS011;69172;52.352;5.006;2023-08-07T12:38:03;5.28;;;1.85;;
79702;SDS011;69172;52.352;5.006;2023-08-07T12:40:29;7.82;;;1.65;;
79702;SDS011;69172;52.352;5.006;2023-08-07T12:42:55;6.00;;;1.48;;
79702;SDS011;69172;52.352;5.006;2023-08-07T12:45:21;8.73;;;1.60;;
79702;SDS011;69172;52.352;5.006;2023-08-07T12:47:46;6.68;;;1.50;;
79702;SDS011;69172;52.352;5.006;2023-08-07T12:50:12;4.70;;;1.20;;
79702;SDS011;69172;52.352;5.006;2023-08-07T12:52:37;7.43;;;1.50;;
79702;SDS011;69172;52.352;5.006;2023-08-07T12:55:03;4.20;;;1.25;;
79702;SDS011;69172;52.352;5.006;2023-08-07T12:57:30;7.65;;;1.92;;
79702;SDS011;69172;52.352;5.006;2023-08-07T12:59:56;7.43;;;1.30;;
79702;SDS011;69172;52.352;5.006;2023-08-07T13:02:21;5.72;;;1.35;;
79702;SDS011;69172;52.352;5.006;2023-08-07T13:04:47;7.65;;;1.35;;
79702;SDS011;69172;52.352;5.006;2023-08-07T13:07:12;8.70;;;2.08;;
79702;SDS011;69172;52.352;5.006;2023-08-07T13:09:38;4.85;;;1.50;;
79702;SDS011;69172;52.352;5.006;2023-08-07T13:12:03;6.10;;;1.73;;
79702;SDS011;69172;52.352;5.006;2023-08-07T13:14:29;6.55;;;1.75;;
79702;SDS011;69172;52.352;5.006;2023-08-07T13:16:55;14.00;;;1.60;;
79702;SDS011;69172;52.352;5.006;2023-08-07T13:19:20;8.27;;;1.55;;
79702;SDS011;69172;52.352;5.006;2023-08-07T13:21:46;8.70;;;1.52;;
79702;SDS011;69172;52.352;5.006;2023-08-07T13:24:12;6.28;;;1.63;;
79702;SDS011;69172;52.352;5.006;2023-08-07T13:26:37;7.10;;;1.33;;
79702;SDS011;69172;52.352;5.006;2023-08-07T13:29:09;7.88;;;1.50;;
79702;SDS011;69172;52.352;5.006;2023-08-07T13:31:38;5.78;;;1.20;;
79702;SDS011;69172;52.352;5.006;2023-08-07T13:34:03;6.35;;;1.52;;
79702;SDS011;69172;52.352;5.006;2023-08-07T13:36:36;6.35;;;1.65;;
79702;SDS011;69172;52.352;5.006;2023-08-07T13:39:02;5.65;;;1.48;;
79702;SDS011;69172;52.352;5.006;2023-08-07T13:41:28;10.52;;;1.80;;
79702;SDS011;69172;52.352;5.006;2023-08-07T13:43:53;8.52;;;1.88;;
79702;SDS011;69172;52.352;5.006;2023-08-07T13:46:18;6.50;;;1.40;;
79702;SDS011;69172;52.352;5.006;2023-08-07T13:48:47;7.18;;;1.48;;
79702;SDS011;69172;52.352;5.006;2023-08-07T13:51:13;6.13;;;1.33;;
79702;SDS011;69172;52.352;5.006;2023-08-07T13:53:39;9.90;;;1.60;;
79702;SDS011;69172;52.352;5.006;2023-08-07T13:56:05;4.70;;;0.90;;
79702;SDS011;69172;52.352;5.006;2023-08-07T13:58:31;6.05;;;1.40;;
79702;SDS011;69172;52.352;5.006;2023-08-07T14:00:57;6.70;;;1.10;;
79702;SDS011;69172;52.352;5.006;2023-08-07T14:03:22;7.43;;;1.60;;
79702;SDS011;69172;52.352;5.006;2023-08-07T14:05:48;5.93;;;1.42;;
79702;SDS011;69172;52.352;5.006;2023-08-07T14:08:15;6.75;;;1.40;;
79702;SDS011;69172;52.352;5.006;2023-08-07T14:10:41;6.25;;;1.33;;
79702;SDS011;69172;52.352;5.006;2023-08-07T14:13:06;8.10;;;1.80;;
79702;SDS011;69172;52.352;5.006;2023-08-07T14:15:32;6.35;;;1.65;;
79702;SDS011;69172;52.352;5.006;2023-08-07T14:17:58;5.60;;;1.30;;
79702;SDS011;69172;52.352;5.006;2023-08-07T14:20:23;4.93;;;1.35;;
79702;SDS011;69172;52.352;5.006;2023-08-07T14:22:49;5.93;;;1.88;;
79702;SDS011;69172;52.352;5.006;2023-08-07T14:25:15;5.90;;;1.70;;
79702;SDS011;69172;52.352;5.006;2023-08-07T14:27:41;3.83;;;1.58;;
79702;SDS011;69172;52.352;5.006;2023-08-07T14:30:06;5.20;;;1.15;;
79702;SDS011;69172;52.352;5.006;2023-08-07T14:32:32;6.95;;;1.83;;
79702;SDS011;69172;52.352;5.006;2023-08-07T14:34:58;5.15;;;1.70;;
79702;SDS011;69172;52.352;5.006;2023-08-07T14:37:23;7.60;;;1.92;;
79702;SDS011;69172;52.352;5.006;2023-08-07T14:39:49;6.88;;;1.88;;
79702;SDS011;69172;52.352;5.006;2023-08-07T14:42:14;6.13;;;1.73;;